logo
Search for airport 
image banner adimage banner adimage banner ad
image banner ad

YDRA - Dongara Airport

Located in Port Denison, Australia

ICAO - YDRA, IATA - DOX

Data provided by Airmate  

General information

Coordinates: S29°17'54" E114°55'38"
Elevation is 23 feet MSL.
Magnetic variation is -1° East
View others Airports in Western Australia

Operational data

Special qualification required
Current time UTC:
Current local time:
Weather at : YGEL - Geraldton ( 60 km )
METAR: YGEL 130400Z AUTO 06011KT 9999 // NCD 17/10 Q1017 RF00.0/000.0
TAF: TAF YGEL 122312Z 1300/1318 06012KT CAVOK FM130800 12006KT CAVOK FM131300 06005KT CAVOK
View NOTAMs / SUP AIP / TFR affecting this airport [VIEW]
Communications frequencies: [VIEW]

Runways:

RWY identifierQFULength (ft)Width (ft)SurfaceLDA (ft)
18180°415059ASPH
00415059ASPH

Airport contact information

Address: Port Denison Australia

Satellite view of YDRA